sensor_id;sensor_type;location;lat;lon;timestamp;P1;durP1;ratioP1;P2;durP2;ratioP2
24685;SDS011;12804;51.176;4.452;2023-02-22T00:00:18;60.53;;;25.15;;
24685;SDS011;12804;51.176;4.452;2023-02-22T00:03:04;65.88;;;26.70;;
24685;SDS011;12804;51.176;4.452;2023-02-22T00:05:31;81.47;;;24.65;;
24685;SDS011;12804;51.176;4.452;2023-02-22T00:07:57;94.38;;;24.80;;
24685;SDS011;12804;51.176;4.452;2023-02-22T00:10:25;58.15;;;25.67;;
24685;SDS011;12804;51.176;4.452;2023-02-22T00:12:52;87.13;;;26.60;;
24685;SDS011;12804;51.176;4.452;2023-02-22T00:15:23;79.68;;;27.20;;
24685;SDS011;12804;51.176;4.452;2023-02-22T00:17:52;90.35;;;26.85;;
24685;SDS011;12804;51.176;4.452;2023-02-22T00:20:18;67.28;;;23.80;;
24685;SDS011;12804;51.176;4.452;2023-02-22T00:22:46;116.97;;;26.33;;
24685;SDS011;12804;51.176;4.452;2023-02-22T00:25:14;72.20;;;26.63;;
24685;SDS011;12804;51.176;4.452;2023-02-22T00:27:44;55.60;;;24.75;;
24685;SDS011;12804;51.176;4.452;2023-02-22T00:30:21;62.38;;;25.42;;
24685;SDS011;12804;51.176;4.452;2023-02-22T00:32:49;57.42;;;24.98;;
24685;SDS011;12804;51.176;4.452;2023-02-22T00:35:16;60.70;;;26.05;;
24685;SDS011;12804;51.176;4.452;2023-02-22T00:37:46;75.65;;;26.15;;
24685;SDS011;12804;51.176;4.452;2023-02-22T00:40:14;79.78;;;26.55;;
24685;SDS011;12804;51.176;4.452;2023-02-22T00:42:43;74.00;;;26.98;;
24685;SDS011;12804;51.176;4.452;2023-02-22T00:45:12;121.78;;;25.67;;
24685;SDS011;12804;51.176;4.452;2023-02-22T00:47:40;82.63;;;26.75;;
24685;SDS011;12804;51.176;4.452;2023-02-22T00:50:07;90.75;;;27.58;;
24685;SDS011;12804;51.176;4.452;2023-02-22T00:52:34;84.60;;;27.08;;
24685;SDS011;12804;51.176;4.452;2023-02-22T00:55:02;80.05;;;25.42;;
24685;SDS011;12804;51.176;4.452;2023-02-22T00:57:30;109.35;;;27.80;;
24685;SDS011;12804;51.176;4.452;2023-02-22T00:59:56;78.43;;;25.45;;
24685;SDS011;12804;51.176;4.452;2023-02-22T01:02:21;80.95;;;24.50;;
24685;SDS011;12804;51.176;4.452;2023-02-22T01:04:47;169.05;;;27.75;;
24685;SDS011;12804;51.176;4.452;2023-02-22T01:07:13;50.92;;;24.98;;
24685;SDS011;12804;51.176;4.452;2023-02-22T01:09:39;81.80;;;28.60;;
24685;SDS011;12804;51.176;4.452;2023-02-22T01:12:06;76.53;;;25.92;;
24685;SDS011;12804;51.176;4.452;2023-02-22T01:14:32;50.42;;;23.48;;
24685;SDS011;12804;51.176;4.452;2023-02-22T01:16:59;54.75;;;25.17;;
24685;SDS011;12804;51.176;4.452;2023-02-22T01:19:25;59.63;;;25.27;;
24685;SDS011;12804;51.176;4.452;2023-02-22T01:21:51;57.80;;;25.58;;
24685;SDS011;12804;51.176;4.452;2023-02-22T01:24:18;55.67;;;25.70;;
24685;SDS011;12804;51.176;4.452;2023-02-22T01:26:49;78.82;;;26.30;;
24685;SDS011;12804;51.176;4.452;2023-02-22T01:29:16;62.88;;;26.55;;
24685;SDS011;12804;51.176;4.452;2023-02-22T01:31:42;95.53;;;27.75;;
24685;SDS011;12804;51.176;4.452;2023-02-22T01:34:15;55.67;;;25.83;;
24685;SDS011;12804;51.176;4.452;2023-02-22T01:36:42;76.53;;;26.88;;
24685;SDS011;12804;51.176;4.452;2023-02-22T01:39:08;104.53;;;27.17;;
24685;SDS011;12804;51.176;4.452;2023-02-22T01:41:37;80.95;;;26.40;;
24685;SDS011;12804;51.176;4.452;2023-02-22T01:44:20;73.82;;;26.17;;
24685;SDS011;12804;51.176;4.452;2023-02-22T01:46:52;97.35;;;27.05;;
24685;SDS011;12804;51.176;4.452;2023-02-22T01:49:28;50.25;;;25.02;;
24685;SDS011;12804;51.176;4.452;2023-02-22T01:52:07;134.50;;;25.52;;
24685;SDS011;12804;51.176;4.452;2023-02-22T01:54:43;53.03;;;24.77;;
24685;SDS011;12804;51.176;4.452;2023-02-22T01:57:21;53.53;;;23.50;;
24685;SDS011;12804;51.176;4.452;2023-02-22T01:59:55;93.03;;;24.00;;
24685;SDS011;12804;51.176;4.452;2023-02-22T02:02:24;80.85;;;23.45;;
24685;SDS011;12804;51.176;4.452;2023-02-22T02:04:52;113.03;;;23.92;;
24685;SDS011;12804;51.176;4.452;2023-02-22T02:07:21;77.57;;;23.88;;
24685;SDS011;12804;51.176;4.452;2023-02-22T02:09:58;70.03;;;23.50;;
24685;SDS011;12804;51.176;4.452;2023-02-22T02:12:26;57.20;;;22.95;;
24685;SDS011;12804;51.176;4.452;2023-02-22T02:17:53;60.47;;;23.90;;
24685;SDS011;12804;51.176;4.452;2023-02-22T02:22:53;50.55;;;22.70;;
24685;SDS011;12804;51.176;4.452;2023-02-22T02:42:10;56.80;;;22.40;;
24685;SDS011;12804;51.176;4.452;2023-02-22T02:47:41;57.70;;;21.00;;
24685;SDS011;12804;51.176;4.452;2023-02-22T02:50:18;80.32;;;22.10;;
24685;SDS011;12804;51.176;4.452;2023-02-22T02:52:52;61.85;;;20.73;;
24685;SDS011;12804;51.176;4.452;2023-02-22T02:55:21;49.70;;;21.75;;
24685;SDS011;12804;51.176;4.452;2023-02-22T02:57:48;70.47;;;22.80;;
24685;SDS011;12804;51.176;4.452;2023-02-22T03:00:15;71.55;;;23.73;;
24685;SDS011;12804;51.176;4.452;2023-02-22T03:03:03;58.20;;;21.73;;
24685;SDS011;12804;51.176;4.452;2023-02-22T03:05:55;49.08;;;22.05;;
24685;SDS011;12804;51.176;4.452;2023-02-22T03:08:52;49.00;;;21.63;;
24685;SDS011;12804;51.176;4.452;2023-02-22T03:14:34;43.63;;;21.57;;
24685;SDS011;12804;51.176;4.452;2023-02-22T03:17:36;44.28;;;21.98;;
24685;SDS011;12804;51.176;4.452;2023-02-22T03:20:41;54.67;;;22.50;;
24685;SDS011;12804;51.176;4.452;2023-02-22T03:23:45;61.63;;;22.50;;
24685;SDS011;12804;51.176;4.452;2023-02-22T03:26:37;49.33;;;24.02;;
24685;SDS011;12804;51.176;4.452;2023-02-22T03:29:12;46.78;;;22.88;;
24685;SDS011;12804;51.176;4.452;2023-02-22T03:31:43;52.58;;;22.33;;
24685;SDS011;12804;51.176;4.452;2023-02-22T03:34:18;51.75;;;22.55;;
24685;SDS011;12804;51.176;4.452;2023-02-22T03:36:52;63.75;;;23.08;;
24685;SDS011;12804;51.176;4.452;2023-02-22T03:39:33;49.40;;;22.25;;
24685;SDS011;12804;51.176;4.452;2023-02-22T03:42:08;66.88;;;21.67;;
24685;SDS011;12804;51.176;4.452;2023-02-22T03:44:39;60.53;;;22.02;;
24685;SDS011;12804;51.176;4.452;2023-02-22T03:47:12;57.17;;;22.75;;
24685;SDS011;12804;51.176;4.452;2023-02-22T03:49:46;47.92;;;22.38;;
24685;SDS011;12804;51.176;4.452;2023-02-22T03:52:17;58.95;;;22.17;;
24685;SDS011;12804;51.176;4.452;2023-02-22T03:54:43;42.58;;;21.67;;
24685;SDS011;12804;51.176;4.452;2023-02-22T03:57:14;52.78;;;23.10;;
24685;SDS011;12804;51.176;4.452;2023-02-22T03:59:50;43.90;;;21.73;;
24685;SDS011;12804;51.176;4.452;2023-02-22T04:02:16;47.60;;;22.90;;
24685;SDS011;12804;51.176;4.452;2023-02-22T04:04:44;49.22;;;22.63;;
24685;SDS011;12804;51.176;4.452;2023-02-22T04:07:11;48.35;;;22.42;;
24685;SDS011;12804;51.176;4.452;2023-02-22T04:09:38;55.70;;;22.85;;
24685;SDS011;12804;51.176;4.452;2023-02-22T04:12:04;50.72;;;23.23;;
24685;SDS011;12804;51.176;4.452;2023-02-22T04:14:40;47.17;;;22.98;;
24685;SDS011;12804;51.176;4.452;2023-02-22T04:17:06;45.80;;;22.33;;
24685;SDS011;12804;51.176;4.452;2023-02-22T04:19:31;61.25;;;21.95;;
24685;SDS011;12804;51.176;4.452;2023-02-22T04:21:57;49.55;;;21.98;;
24685;SDS011;12804;51.176;4.452;2023-02-22T04:24:24;56.53;;;22.65;;
24685;SDS011;12804;51.176;4.452;2023-02-22T04:26:51;41.00;;;21.48;;
24685;SDS011;12804;51.176;4.452;2023-02-22T04:29:19;39.03;;;20.48;;
24685;SDS011;12804;51.176;4.452;2023-02-22T04:31:45;44.47;;;22.85;;
24685;SDS011;12804;51.176;4.452;2023-02-22T04:34:11;41.58;;;21.75;;
24685;SDS011;12804;51.176;4.452;2023-02-22T04:36:38;44.72;;;21.10;;
24685;SDS011;12804;51.176;4.452;2023-02-22T04:39:06;47.35;;;22.17;;
24685;SDS011;12804;51.176;4.452;2023-02-22T04:41:32;52.50;;;22.05;;
24685;SDS011;12804;51.176;4.452;2023-02-22T04:43:59;50.55;;;22.08;;
24685;SDS011;12804;51.176;4.452;2023-02-22T04:46:26;47.40;;;20.85;;
24685;SDS011;12804;51.176;4.452;2023-02-22T04:48:52;40.15;;;20.33;;
24685;SDS011;12804;51.176;4.452;2023-02-22T04:51:21;75.88;;;22.70;;
24685;SDS011;12804;51.176;4.452;2023-02-22T04:54:07;75.57;;;21.25;;
24685;SDS011;12804;51.176;4.452;2023-02-22T04:56:35;48.08;;;21.20;;
24685;SDS011;12804;51.176;4.452;2023-02-22T04:59:01;42.28;;;21.13;;
24685;SDS011;12804;51.176;4.452;2023-02-22T05:01:33;43.80;;;20.65;;
24685;SDS011;12804;51.176;4.452;2023-02-22T05:04:04;44.78;;;20.50;;
24685;SDS011;12804;51.176;4.452;2023-02-22T05:06:31;47.90;;;20.65;;
24685;SDS011;12804;51.176;4.452;2023-02-22T05:08:57;47.78;;;20.17;;
24685;SDS011;12804;51.176;4.452;2023-02-22T05:11:23;46.83;;;20.13;;
24685;SDS011;12804;51.176;4.452;2023-02-22T05:13:49;39.20;;;19.95;;
24685;SDS011;12804;51.176;4.452;2023-02-22T05:16:15;35.88;;;19.08;;
24685;SDS011;12804;51.176;4.452;2023-02-22T05:18:41;36.28;;;20.20;;
24685;SDS011;12804;51.176;4.452;2023-02-22T05:21:07;35.88;;;18.95;;
24685;SDS011;12804;51.176;4.452;2023-02-22T05:23:33;34.10;;;19.88;;
24685;SDS011;12804;51.176;4.452;2023-02-22T05:25:59;35.65;;;20.52;;
24685;SDS011;12804;51.176;4.452;2023-02-22T05:28:25;35.05;;;18.85;;
24685;SDS011;12804;51.176;4.452;2023-02-22T05:30:51;37.90;;;19.48;;
24685;SDS011;12804;51.176;4.452;2023-02-22T05:33:18;40.55;;;19.58;;
24685;SDS011;12804;51.176;4.452;2023-02-22T05:35:44;36.17;;;19.67;;
24685;SDS011;12804;51.176;4.452;2023-02-22T05:38:13;42.70;;;19.88;;
24685;SDS011;12804;51.176;4.452;2023-02-22T05:40:39;33.03;;;18.95;;
24685;SDS011;12804;51.176;4.452;2023-02-22T05:43:06;40.10;;;19.85;;
24685;SDS011;12804;51.176;4.452;2023-02-22T05:45:32;43.88;;;19.80;;
24685;SDS011;12804;51.176;4.452;2023-02-22T05:47:58;33.65;;;18.77;;
24685;SDS011;12804;51.176;4.452;2023-02-22T05:50:24;35.13;;;18.95;;
24685;SDS011;12804;51.176;4.452;2023-02-22T05:52:50;35.80;;;20.58;;
24685;SDS011;12804;51.176;4.452;2023-02-22T05:55:18;32.97;;;18.70;;
24685;SDS011;12804;51.176;4.452;2023-02-22T05:57:46;30.67;;;17.95;;
24685;SDS011;12804;51.176;4.452;2023-02-22T06:00:16;35.17;;;19.95;;
24685;SDS011;12804;51.176;4.452;2023-02-22T06:02:42;33.20;;;19.20;;
24685;SDS011;12804;51.176;4.452;2023-02-22T06:05:08;31.52;;;18.45;;
24685;SDS011;12804;51.176;4.452;2023-02-22T06:07:34;34.08;;;19.48;;
24685;SDS011;12804;51.176;4.452;2023-02-22T06:10:00;33.17;;;19.00;;
24685;SDS011;12804;51.176;4.452;2023-02-22T06:12:26;32.53;;;18.88;;
24685;SDS011;12804;51.176;4.452;2023-02-22T06:14:52;33.15;;;18.90;;
24685;SDS011;12804;51.176;4.452;2023-02-22T06:17:17;29.85;;;18.52;;
24685;SDS011;12804;51.176;4.452;2023-02-22T06:19:43;32.17;;;18.25;;
24685;SDS011;12804;51.176;4.452;2023-02-22T06:22:16;34.30;;;19.48;;
24685;SDS011;12804;51.176;4.452;2023-02-22T06:24:43;33.83;;;18.83;;
24685;SDS011;12804;51.176;4.452;2023-02-22T06:27:10;31.00;;;18.13;;
24685;SDS011;12804;51.176;4.452;2023-02-22T06:29:36;31.55;;;18.58;;
24685;SDS011;12804;51.176;4.452;2023-02-22T06:32:02;33.10;;;18.02;;
24685;SDS011;12804;51.176;4.452;2023-02-22T06:34:27;30.35;;;18.48;;
24685;SDS011;12804;51.176;4.452;2023-02-22T06:36:53;30.85;;;18.35;;
24685;SDS011;12804;51.176;4.452;2023-02-22T06:39:19;30.15;;;18.48;;
24685;SDS011;12804;51.176;4.452;2023-02-22T06:41:45;29.73;;;17.25;;
24685;SDS011;12804;51.176;4.452;2023-02-22T06:44:13;29.85;;;17.75;;
24685;SDS011;12804;51.176;4.452;2023-02-22T06:46:39;30.08;;;17.80;;
24685;SDS011;12804;51.176;4.452;2023-02-22T06:49:12;30.52;;;18.38;;
24685;SDS011;12804;51.176;4.452;2023-02-22T06:51:38;29.98;;;17.67;;
24685;SDS011;12804;51.176;4.452;2023-02-22T06:54:04;27.52;;;16.65;;
24685;SDS011;12804;51.176;4.452;2023-02-22T06:56:30;30.40;;;17.73;;
24685;SDS011;12804;51.176;4.452;2023-02-22T06:58:56;29.23;;;17.80;;
24685;SDS011;12804;51.176;4.452;2023-02-22T07:01:21;30.85;;;17.17;;
24685;SDS011;12804;51.176;4.452;2023-02-22T07:03:47;30.77;;;18.80;;
24685;SDS011;12804;51.176;4.452;2023-02-22T07:06:14;28.98;;;16.58;;
24685;SDS011;12804;51.176;4.452;2023-02-22T07:08:40;31.83;;;17.92;;
24685;SDS011;12804;51.176;4.452;2023-02-22T07:11:06;32.58;;;18.33;;
24685;SDS011;12804;51.176;4.452;2023-02-22T07:13:31;29.35;;;17.80;;
24685;SDS011;12804;51.176;4.452;2023-02-22T07:15:57;31.23;;;18.02;;
24685;SDS011;12804;51.176;4.452;2023-02-22T07:18:24;31.88;;;18.30;;
24685;SDS011;12804;51.176;4.452;2023-02-22T07:20:49;28.92;;;17.05;;
24685;SDS011;12804;51.176;4.452;2023-02-22T07:23:16;28.15;;;17.52;;
24685;SDS011;12804;51.176;4.452;2023-02-22T07:25:42;24.17;;;13.55;;
24685;SDS011;12804;51.176;4.452;2023-02-22T07:28:08;27.00;;;17.48;;
24685;SDS011;12804;51.176;4.452;2023-02-22T07:30:35;25.20;;;16.52;;
24685;SDS011;12804;51.176;4.452;2023-02-22T07:33:06;24.10;;;15.65;;
24685;SDS011;12804;51.176;4.452;2023-02-22T07:35:54;24.17;;;15.15;;
24685;SDS011;12804;51.176;4.452;2023-02-22T07:38:19;23.15;;;15.10;;
24685;SDS011;12804;51.176;4.452;2023-02-22T07:40:45;23.08;;;15.63;;
24685;SDS011;12804;51.176;4.452;2023-02-22T07:43:15;21.58;;;15.50;;
24685;SDS011;12804;51.176;4.452;2023-02-22T07:45:44;21.55;;;14.77;;
24685;SDS011;12804;51.176;4.452;2023-02-22T07:48:11;24.25;;;15.07;;
24685;SDS011;12804;51.176;4.452;2023-02-22T07:50:38;23.10;;;15.25;;
24685;SDS011;12804;51.176;4.452;2023-02-22T07:53:05;21.10;;;14.07;;
24685;SDS011;12804;51.176;4.452;2023-02-22T07:55:35;22.13;;;14.65;;
24685;SDS011;12804;51.176;4.452;2023-02-22T07:58:02;22.58;;;14.25;;
24685;SDS011;12804;51.176;4.452;2023-02-22T08:00:30;18.20;;;13.32;;
24685;SDS011;12804;51.176;4.452;2023-02-22T08:03:00;19.50;;;13.93;;
24685;SDS011;12804;51.176;4.452;2023-02-22T08:05:28;18.85;;;13.05;;
24685;SDS011;12804;51.176;4.452;2023-02-22T08:07:55;16.90;;;12.32;;
24685;SDS011;12804;51.176;4.452;2023-02-22T08:10:22;19.92;;;13.10;;
24685;SDS011;12804;51.176;4.452;2023-02-22T08:12:49;20.05;;;12.82;;
24685;SDS011;12804;51.176;4.452;2023-02-22T08:15:30;18.70;;;12.63;;
24685;SDS011;12804;51.176;4.452;2023-02-22T08:17:57;18.05;;;12.57;;
24685;SDS011;12804;51.176;4.452;2023-02-22T08:20:25;16.88;;;12.38;;
24685;SDS011;12804;51.176;4.452;2023-02-22T08:22:51;18.45;;;12.65;;
24685;SDS011;12804;51.176;4.452;2023-02-22T08:25:18;17.00;;;12.48;;
24685;SDS011;12804;51.176;4.452;2023-02-22T08:27:46;19.20;;;12.15;;
24685;SDS011;12804;51.176;4.452;2023-02-22T08:30:18;17.80;;;11.32;;
24685;SDS011;12804;51.176;4.452;2023-02-22T08:32:46;16.65;;;11.48;;
24685;SDS011;12804;51.176;4.452;2023-02-22T08:35:13;17.45;;;11.57;;
24685;SDS011;12804;51.176;4.452;2023-02-22T08:37:43;17.60;;;11.95;;
24685;SDS011;12804;51.176;4.452;2023-02-22T08:40:11;16.02;;;11.50;;
24685;SDS011;12804;51.176;4.452;2023-02-22T08:42:38;17.75;;;12.10;;
24685;SDS011;12804;51.176;4.452;2023-02-22T08:45:04;16.65;;;10.88;;
24685;SDS011;12804;51.176;4.452;2023-02-22T08:47:30;14.43;;;10.88;;
24685;SDS011;12804;51.176;4.452;2023-02-22T08:49:56;15.45;;;11.05;;
24685;SDS011;12804;51.176;4.452;2023-02-22T08:52:22;14.35;;;10.57;;
24685;SDS011;12804;51.176;4.452;2023-02-22T08:54:47;14.23;;;10.27;;
24685;SDS011;12804;51.176;4.452;2023-02-22T08:57:13;17.73;;;11.18;;
24685;SDS011;12804;51.176;4.452;2023-02-22T08:59:39;14.68;;;10.90;;
24685;SDS011;12804;51.176;4.452;2023-02-22T09:02:05;13.57;;;10.63;;
24685;SDS011;12804;51.176;4.452;2023-02-22T09:04:37;17.27;;;10.43;;
24685;SDS011;12804;51.176;4.452;2023-02-22T09:07:03;15.18;;;10.63;;
24685;SDS011;12804;51.176;4.452;2023-02-22T09:09:29;15.15;;;10.90;;
24685;SDS011;12804;51.176;4.452;2023-02-22T09:11:55;16.05;;;11.35;;
24685;SDS011;12804;51.176;4.452;2023-02-22T09:14:21;17.08;;;11.93;;
24685;SDS011;12804;51.176;4.452;2023-02-22T09:16:46;19.42;;;11.45;;
24685;SDS011;12804;51.176;4.452;2023-02-22T09:19:12;17.10;;;11.40;;
24685;SDS011;12804;51.176;4.452;2023-02-22T09:21:38;17.75;;;11.88;;
24685;SDS011;12804;51.176;4.452;2023-02-22T09:24:04;16.13;;;11.07;;
24685;SDS011;12804;51.176;4.452;2023-02-22T09:26:36;16.55;;;11.38;;
24685;SDS011;12804;51.176;4.452;2023-02-22T09:29:06;15.70;;;11.52;;
24685;SDS011;12804;51.176;4.452;2023-02-22T09:31:37;17.15;;;10.30;;
24685;SDS011;12804;51.176;4.452;2023-02-22T09:34:04;15.45;;;10.85;;
24685;SDS011;12804;51.176;4.452;2023-02-22T09:36:41;14.25;;;10.80;;
24685;SDS011;12804;51.176;4.452;2023-02-22T09:39:08;13.93;;;10.30;;
24685;SDS011;12804;51.176;4.452;2023-02-22T09:46:46;18.92;;;11.27;;
24685;SDS011;12804;51.176;4.452;2023-02-22T09:49:31;18.67;;;12.07;;
24685;SDS011;12804;51.176;4.452;2023-02-22T09:54:53;17.90;;;12.43;;
24685;SDS011;12804;51.176;4.452;2023-02-22T09:57:40;16.58;;;11.68;;
24685;SDS011;12804;51.176;4.452;2023-02-22T10:00:17;18.95;;;12.93;;
24685;SDS011;12804;51.176;4.452;2023-02-22T10:02:54;19.42;;;12.50;;
24685;SDS011;12804;51.176;4.452;2023-02-22T10:05:46;16.27;;;12.85;;
24685;SDS011;12804;51.176;4.452;2023-02-22T10:08:17;19.25;;;13.02;;
24685;SDS011;12804;51.176;4.452;2023-02-22T10:10:45;19.70;;;13.18;;
24685;SDS011;12804;51.176;4.452;2023-02-22T10:25:19;18.55;;;13.00;;
24685;SDS011;12804;51.176;4.452;2023-02-22T10:27:18;18.23;;;12.65;;
24685;SDS011;12804;51.176;4.452;2023-02-22T10:35:40;16.83;;;12.35;;
24685;SDS011;12804;51.176;4.452;2023-02-22T10:40:49;20.42;;;12.80;;
24685;SDS011;12804;51.176;4.452;2023-02-22T10:43:18;16.85;;;12.43;;
24685;SDS011;12804;51.176;4.452;2023-02-22T10:45:44;16.70;;;12.65;;
24685;SDS011;12804;51.176;4.452;2023-02-22T10:48:12;18.23;;;12.43;;
24685;SDS011;12804;51.176;4.452;2023-02-22T10:50:43;19.50;;;12.57;;
24685;SDS011;12804;51.176;4.452;2023-02-22T10:53:10;19.23;;;14.00;;
24685;SDS011;12804;51.176;4.452;2023-02-22T10:58:53;17.13;;;12.23;;
24685;SDS011;12804;51.176;4.452;2023-02-22T11:06:29;19.60;;;12.18;;
24685;SDS011;12804;51.176;4.452;2023-02-22T11:09:03;18.02;;;13.35;;
24685;SDS011;12804;51.176;4.452;2023-02-22T11:11:34;19.00;;;14.57;;
24685;SDS011;12804;51.176;4.452;2023-02-22T11:14:01;20.08;;;12.45;;
24685;SDS011;12804;51.176;4.452;2023-02-22T11:16:34;20.42;;;12.77;;
24685;SDS011;12804;51.176;4.452;2023-02-22T11:19:07;19.60;;;12.70;;
24685;SDS011;12804;51.176;4.452;2023-02-22T11:21:42;19.25;;;13.77;;
24685;SDS011;12804;51.176;4.452;2023-02-22T11:24:11;21.75;;;13.63;;
24685;SDS011;12804;51.176;4.452;2023-02-22T11:26:46;18.65;;;13.63;;
24685;SDS011;12804;51.176;4.452;2023-02-22T11:29:33;19.20;;;13.68;;
24685;SDS011;12804;51.176;4.452;2023-02-22T11:32:02;21.17;;;14.63;;
24685;SDS011;12804;51.176;4.452;2023-02-22T11:34:38;23.65;;;15.07;;
24685;SDS011;12804;51.176;4.452;2023-02-22T11:40:12;24.98;;;15.07;;
24685;SDS011;12804;51.176;4.452;2023-02-22T11:42:42;23.05;;;14.80;;
24685;SDS011;12804;51.176;4.452;2023-02-22T11:45:13;21.17;;;14.98;;
24685;SDS011;12804;51.176;4.452;2023-02-22T11:47:55;25.17;;;15.93;;
24685;SDS011;12804;51.176;4.452;2023-02-22T11:56:21;23.63;;;17.50;;
24685;SDS011;12804;51.176;4.452;2023-02-22T11:59:19;25.83;;;18.27;;
24685;SDS011;12804;51.176;4.452;2023-02-22T12:05:21;27.73;;;18.92;;
24685;SDS011;12804;51.176;4.452;2023-02-22T12:22:07;26.02;;;19.80;;
24685;SDS011;12804;51.176;4.452;2023-02-22T12:24:38;29.38;;;21.13;;
24685;SDS011;12804;51.176;4.452;2023-02-22T12:27:18;28.90;;;19.98;;
24685;SDS011;12804;51.176;4.452;2023-02-22T12:30:00;27.75;;;20.25;;
24685;SDS011;12804;51.176;4.452;2023-02-22T12:32:52;28.27;;;20.65;;
24685;SDS011;12804;51.176;4.452;2023-02-22T12:35:27;30.55;;;21.27;;
24685;SDS011;12804;51.176;4.452;2023-02-22T12:38:10;28.40;;;20.25;;
24685;SDS011;12804;51.176;4.452;2023-02-22T12:43:50;27.63;;;20.58;;
24685;SDS011;12804;51.176;4.452;2023-02-22T12:51:58;31.13;;;21.90;;
24685;SDS011;12804;51.176;4.452;2023-02-22T12:54:40;33.85;;;23.30;;
24685;SDS011;12804;51.176;4.452;2023-02-22T13:05:25;32.85;;;23.65;;
24685;SDS011;12804;51.176;4.452;2023-02-22T13:08:10;30.90;;;24.17;;
24685;SDS011;12804;51.176;4.452;2023-02-22T13:10:55;32.72;;;23.38;;
24685;SDS011;12804;51.176;4.452;2023-02-22T13:13:39;33.80;;;22.73;;
24685;SDS011;12804;51.176;4.452;2023-02-22T13:22:46;33.95;;;24.02;;
24685;SDS011;12804;51.176;4.452;2023-02-22T13:26:00;33.25;;;24.20;;
24685;SDS011;12804;51.176;4.452;2023-02-22T13:28:15;31.73;;;24.27;;
24685;SDS011;12804;51.176;4.452;2023-02-22T13:36:16;36.33;;;24.77;;
24685;SDS011;12804;51.176;4.452;2023-02-22T13:53:06;33.53;;;26.95;;
24685;SDS011;12804;51.176;4.452;2023-02-22T13:55:53;40.15;;;28.23;;
24685;SDS011;12804;51.176;4.452;2023-02-22T13:58:22;39.97;;;28.88;;
24685;SDS011;12804;51.176;4.452;2023-02-22T14:00:53;37.55;;;27.95;;
24685;SDS011;12804;51.176;4.452;2023-02-22T14:05:58;39.50;;;28.45;;
24685;SDS011;12804;51.176;4.452;2023-02-22T14:10:55;42.28;;;30.23;;
24685;SDS011;12804;51.176;4.452;2023-02-22T14:13:22;38.15;;;29.85;;
24685;SDS011;12804;51.176;4.452;2023-02-22T14:18:25;43.35;;;30.80;;
24685;SDS011;12804;51.176;4.452;2023-02-22T14:28:57;42.22;;;29.52;;
24685;SDS011;12804;51.176;4.452;2023-02-22T14:31:31;44.50;;;31.25;;
24685;SDS011;12804;51.176;4.452;2023-02-22T14:34:21;45.33;;;32.13;;
24685;SDS011;12804;51.176;4.452;2023-02-22T14:37:18;42.53;;;31.48;;
24685;SDS011;12804;51.176;4.452;2023-02-22T14:39:56;49.15;;;32.65;;
24685;SDS011;12804;51.176;4.452;2023-02-22T14:42:50;45.50;;;33.15;;
24685;SDS011;12804;51.176;4.452;2023-02-22T14:45:32;45.45;;;32.03;;
24685;SDS011;12804;51.176;4.452;2023-02-22T14:50:52;46.63;;;32.83;;
24685;SDS011;12804;51.176;4.452;2023-02-22T14:56:06;46.83;;;32.72;;
24685;SDS011;12804;51.176;4.452;2023-02-22T14:58:56;50.05;;;33.67;;
24685;SDS011;12804;51.176;4.452;2023-02-22T15:01:34;49.25;;;33.67;;
24685;SDS011;12804;51.176;4.452;2023-02-22T15:06:50;52.38;;;35.25;;
24685;SDS011;12804;51.176;4.452;2023-02-22T15:09:22;53.03;;;37.05;;
24685;SDS011;12804;51.176;4.452;2023-02-22T15:14:29;52.58;;;34.10;;
24685;SDS011;12804;51.176;4.452;2023-02-22T15:17:00;53.45;;;34.25;;
24685;SDS011;12804;51.176;4.452;2023-02-22T15:19:32;51.45;;;33.75;;
24685;SDS011;12804;51.176;4.452;2023-02-22T15:22:01;54.17;;;34.08;;
24685;SDS011;12804;51.176;4.452;2023-02-22T15:24:35;55.63;;;35.42;;
24685;SDS011;12804;51.176;4.452;2023-02-22T15:27:06;55.25;;;35.03;;
24685;SDS011;12804;51.176;4.452;2023-02-22T15:29:41;51.88;;;33.80;;
24685;SDS011;12804;51.176;4.452;2023-02-22T15:32:18;54.53;;;32.80;;
24685;SDS011;12804;51.176;4.452;2023-02-22T15:35:17;54.78;;;33.42;;
24685;SDS011;12804;51.176;4.452;2023-02-22T15:37:57;55.53;;;33.70;;
24685;SDS011;12804;51.176;4.452;2023-02-22T15:40:44;56.78;;;34.42;;
24685;SDS011;12804;51.176;4.452;2023-02-22T15:43:23;55.90;;;33.83;;
24685;SDS011;12804;51.176;4.452;2023-02-22T15:45:53;53.85;;;32.22;;
24685;SDS011;12804;51.176;4.452;2023-02-22T15:48:19;54.17;;;33.13;;
24685;SDS011;12804;51.176;4.452;2023-02-22T15:53:27;51.90;;;32.53;;
24685;SDS011;12804;51.176;4.452;2023-02-22T15:58:23;53.33;;;31.80;;
24685;SDS011;12804;51.176;4.452;2023-02-22T16:00:58;51.72;;;33.33;;
24685;SDS011;12804;51.176;4.452;2023-02-22T16:03:39;53.70;;;33.40;;
24685;SDS011;12804;51.176;4.452;2023-02-22T16:09:12;56.00;;;33.50;;
24685;SDS011;12804;51.176;4.452;2023-02-22T16:11:41;51.75;;;32.63;;
24685;SDS011;12804;51.176;4.452;2023-02-22T16:14:25;52.85;;;32.33;;
24685;SDS011;12804;51.176;4.452;2023-02-22T16:19:53;54.90;;;32.67;;
24685;SDS011;12804;51.176;4.452;2023-02-22T16:22:30;57.45;;;33.25;;
24685;SDS011;12804;51.176;4.452;2023-02-22T16:27:43;57.33;;;34.80;;
24685;SDS011;12804;51.176;4.452;2023-02-22T16:32:45;56.63;;;33.45;;
24685;SDS011;12804;51.176;4.452;2023-02-22T16:35:11;57.55;;;34.10;;
24685;SDS011;12804;51.176;4.452;2023-02-22T16:37:54;59.20;;;33.53;;
24685;SDS011;12804;51.176;4.452;2023-02-22T16:40:24;52.58;;;32.15;;
24685;SDS011;12804;51.176;4.452;2023-02-22T16:43:06;55.60;;;33.45;;
24685;SDS011;12804;51.176;4.452;2023-02-22T16:45:36;61.05;;;34.70;;
24685;SDS011;12804;51.176;4.452;2023-02-22T16:48:10;62.50;;;34.85;;
24685;SDS011;12804;51.176;4.452;2023-02-22T16:50:45;60.15;;;33.88;;
24685;SDS011;12804;51.176;4.452;2023-02-22T16:53:12;61.08;;;34.63;;
24685;SDS011;12804;51.176;4.452;2023-02-22T16:55:42;60.20;;;35.83;;
24685;SDS011;12804;51.176;4.452;2023-02-22T16:58:09;62.95;;;37.65;;
24685;SDS011;12804;51.176;4.452;2023-02-22T17:00:37;66.10;;;37.05;;
24685;SDS011;12804;51.176;4.452;2023-02-22T17:03:08;69.30;;;37.70;;
24685;SDS011;12804;51.176;4.452;2023-02-22T17:05:39;70.15;;;38.10;;
24685;SDS011;12804;51.176;4.452;2023-02-22T17:08:05;65.68;;;38.03;;
24685;SDS011;12804;51.176;4.452;2023-02-22T17:10:32;64.60;;;38.30;;
24685;SDS011;12804;51.176;4.452;2023-02-22T17:12:58;67.57;;;38.92;;
24685;SDS011;12804;51.176;4.452;2023-02-22T17:15:26;64.95;;;38.13;;
24685;SDS011;12804;51.176;4.452;2023-02-22T17:17:53;71.15;;;39.22;;
24685;SDS011;12804;51.176;4.452;2023-02-22T17:20:21;66.68;;;38.53;;
24685;SDS011;12804;51.176;4.452;2023-02-22T17:22:57;68.60;;;40.38;;
24685;SDS011;12804;51.176;4.452;2023-02-22T17:25:42;66.07;;;38.75;;
24685;SDS011;12804;51.176;4.452;2023-02-22T17:28:19;65.03;;;38.45;;
24685;SDS011;12804;51.176;4.452;2023-02-22T17:30:46;67.50;;;38.95;;
24685;SDS011;12804;51.176;4.452;2023-02-22T17:33:17;68.03;;;39.78;;
24685;SDS011;12804;51.176;4.452;2023-02-22T17:35:44;66.63;;;39.85;;
24685;SDS011;12804;51.176;4.452;2023-02-22T17:38:13;71.65;;;39.00;;
24685;SDS011;12804;51.176;4.452;2023-02-22T17:40:42;65.00;;;37.92;;